createdAt,value
2022-09-15T00:00:29.057Z,23.53
2022-09-15T00:02:29.272Z,23.56
2022-09-15T00:04:29.033Z,23.56
2022-09-15T00:06:29.061Z,23.65
2022-09-15T00:08:29.163Z,23.54
2022-09-15T00:10:29.136Z,23.53
2022-09-15T00:12:29.204Z,23.55
2022-09-15T00:14:29.045Z,23.54
2022-09-15T00:16:29.102Z,23.56
2022-09-15T00:18:29.074Z,23.51
2022-09-15T00:20:29.159Z,23.54
2022-09-15T00:22:29.182Z,23.53
2022-09-15T00:24:29.180Z,23.54
2022-09-15T00:26:29.198Z,23.51
2022-09-15T00:28:29.148Z,23.53
2022-09-15T00:30:29.130Z,23.53
2022-09-15T00:32:29.183Z,23.53
2022-09-15T00:34:29.065Z,23.53
2022-09-15T00:36:29.108Z,23.53
2022-09-15T00:38:29.197Z,23.57
2022-09-15T00:40:29.137Z,23.58
2022-09-15T00:42:29.204Z,23.52
2022-09-15T00:44:29.207Z,23.53
2022-09-15T00:46:29.203Z,23.53
2022-09-15T00:48:29.131Z,23.56
2022-09-15T00:50:29.212Z,23.57
2022-09-15T00:52:29.132Z,23.54
2022-09-15T00:54:29.135Z,23.48
2022-09-15T00:56:29.116Z,23.51
2022-09-15T00:58:29.190Z,23.49
2022-09-15T01:00:29.207Z,23.53
2022-09-15T01:02:29.200Z,23.49
2022-09-15T01:04:29.112Z,23.55
2022-09-15T01:06:29.217Z,23.53
2022-09-15T01:08:29.197Z,23.45
2022-09-15T01:10:29.219Z,23.50
2022-09-15T01:12:29.136Z,23.53
2022-09-15T01:14:29.202Z,23.43
2022-09-15T01:16:29.277Z,23.47
2022-09-15T01:18:29.252Z,23.44
2022-09-15T01:20:29.238Z,23.47
2022-09-15T01:22:29.152Z,23.45
2022-09-15T01:24:29.247Z,23.45
2022-09-15T01:26:29.239Z,23.47
2022-09-15T01:28:29.239Z,23.45
2022-09-15T01:30:29.353Z,23.45
2022-09-15T01:32:29.065Z,23.39
2022-09-15T01:34:29.204Z,23.43
2022-09-15T01:36:29.279Z,23.42
2022-09-15T01:38:29.255Z,23.40
2022-09-15T01:40:29.251Z,23.43
2022-09-15T01:42:29.219Z,23.43
2022-09-15T01:44:29.142Z,23.45
2022-09-15T01:46:29.248Z,23.41
2022-09-15T01:48:29.265Z,23.41
2022-09-15T01:50:29.265Z,23.48
2022-09-15T01:52:29.154Z,23.44
2022-09-15T01:54:29.197Z,23.42
2022-09-15T01:56:29.267Z,23.39
2022-09-15T01:58:29.175Z,23.37
2022-09-15T02:00:29.130Z,23.40
2022-09-15T02:02:29.267Z,23.40
2022-09-15T02:04:29.279Z,23.39
2022-09-15T02:06:29.294Z,23.44
2022-09-15T02:08:29.280Z,23.39
2022-09-15T02:10:29.371Z,23.41
2022-09-15T02:12:29.359Z,23.38
2022-09-15T02:14:29.214Z,23.38
2022-09-15T02:16:29.424Z,23.39
2022-09-15T02:18:29.226Z,23.39
2022-09-15T02:20:29.214Z,23.39
2022-09-15T02:22:29.298Z,23.36
2022-09-15T02:24:29.235Z,23.37
2022-09-15T02:26:29.242Z,23.43
2022-09-15T02:28:29.344Z,23.39
2022-09-15T02:30:29.322Z,23.39
2022-09-15T02:32:29.195Z,23.40
2022-09-15T02:34:29.316Z,23.34
2022-09-15T02:36:29.285Z,23.38
2022-09-15T02:38:29.345Z,23.39
2022-09-15T02:40:29.270Z,23.35
2022-09-15T02:42:29.251Z,23.36
2022-09-15T02:44:29.306Z,23.34
2022-09-15T02:46:29.454Z,23.38
2022-09-15T02:48:29.338Z,23.30
2022-09-15T02:50:29.227Z,23.36
2022-09-15T02:52:29.351Z,23.39
2022-09-15T02:54:29.368Z,23.35
2022-09-15T02:56:29.424Z,23.35
2022-09-15T02:58:29.307Z,23.34
2022-09-15T03:00:29.305Z,23.33
2022-09-15T03:02:29.402Z,23.27
2022-09-15T03:04:29.331Z,23.39
2022-09-15T03:06:29.302Z,23.34
2022-09-15T03:08:29.364Z,23.37
2022-09-15T03:10:29.357Z,23.36
2022-09-15T03:12:29.314Z,23.34
2022-09-15T03:14:29.214Z,23.36
2022-09-15T03:16:29.460Z,23.29
2022-09-15T03:18:29.373Z,23.33
2022-09-15T03:20:29.372Z,23.26
2022-09-15T03:22:29.290Z,23.34
2022-09-15T03:24:29.407Z,23.27
2022-09-15T03:26:29.389Z,23.37
2022-09-15T03:28:29.338Z,23.29
2022-09-15T03:30:29.381Z,23.38
2022-09-15T03:32:29.350Z,23.39
2022-09-15T03:34:29.382Z,23.27
2022-09-15T03:36:29.375Z,23.29
2022-09-15T03:38:29.357Z,23.34
2022-09-15T03:40:29.462Z,23.36
2022-09-15T03:42:29.424Z,23.36
2022-09-15T03:44:29.415Z,23.31
2022-09-15T03:46:29.418Z,23.31
2022-09-15T03:48:29.416Z,23.34
2022-09-15T03:50:29.415Z,23.31
2022-09-15T03:52:29.372Z,23.30
2022-09-15T03:54:29.412Z,23.34
2022-09-15T03:56:29.517Z,23.31
2022-09-15T03:58:30.787Z,23.29
2022-09-15T04:00:29.551Z,23.06
2022-09-15T04:02:29.459Z,23.09
2022-09-15T04:04:29.436Z,23.03
2022-09-15T04:06:29.310Z,23.05
2022-09-15T04:08:29.402Z,23.10
2022-09-15T04:10:29.352Z,23.02
2022-09-15T04:12:29.527Z,23.05
2022-09-15T04:14:29.489Z,23.03
2022-09-15T04:16:29.574Z,23.09
2022-09-15T04:18:29.529Z,23.01
2022-09-15T04:20:29.442Z,23.01
2022-09-15T04:22:29.455Z,22.97
2022-09-15T04:24:29.311Z,23.06
2022-09-15T04:26:29.438Z,22.98
2022-09-15T04:28:29.489Z,23.06
2022-09-15T04:30:29.454Z,23.24
2022-09-15T04:32:29.404Z,23.34
2022-09-15T04:34:29.463Z,23.34
2022-09-15T04:36:29.483Z,23.26
2022-09-15T04:38:29.491Z,23.26
2022-09-15T04:40:29.482Z,23.27
2022-09-15T04:42:29.550Z,23.30
2022-09-15T04:44:29.481Z,23.27
2022-09-15T04:46:29.507Z,23.25
2022-09-15T04:48:29.487Z,23.25
2022-09-15T04:50:29.367Z,23.05
2022-09-15T04:52:29.504Z,23.23
2022-09-15T04:54:29.482Z,23.16
2022-09-15T04:56:29.518Z,23.25
2022-09-15T04:58:29.486Z,23.13
2022-09-15T05:00:29.401Z,23.15
2022-09-15T05:02:29.619Z,23.13
2022-09-15T05:04:29.474Z,23.09
2022-09-15T05:06:29.486Z,22.98
2022-09-15T05:08:29.495Z,23.10
2022-09-15T05:10:29.414Z,23.13
2022-09-15T05:12:29.489Z,23.11
2022-09-15T05:14:29.418Z,23.13
2022-09-15T05:16:29.600Z,23.12
2022-09-15T05:18:29.389Z,23.29
2022-09-15T05:20:29.527Z,23.22
2022-09-15T05:22:29.527Z,23.29
2022-09-15T05:24:29.430Z,23.25
2022-09-15T05:26:29.516Z,23.25
2022-09-15T05:28:29.519Z,23.25
2022-09-15T05:30:38.670Z,23.25
2022-09-15T05:32:29.553Z,23.28
2022-09-15T05:34:29.523Z,23.25
2022-09-15T05:36:29.569Z,23.27
2022-09-15T05:38:29.520Z,23.25
2022-09-15T05:40:29.490Z,23.29
2022-09-15T05:42:29.532Z,23.31
2022-09-15T05:44:29.565Z,23.24
2022-09-15T05:46:29.680Z,23.24
2022-09-15T05:48:29.556Z,23.25
2022-09-15T05:50:29.545Z,23.26
2022-09-15T05:52:29.562Z,23.27
2022-09-15T05:54:29.537Z,23.25
2022-09-15T05:56:29.501Z,23.31
2022-09-15T05:58:29.555Z,23.27
2022-09-15T06:00:29.426Z,23.29
2022-09-15T06:02:29.529Z,23.34
2022-09-15T06:04:29.457Z,23.31
2022-09-15T06:06:29.417Z,23.26
2022-09-15T06:08:29.563Z,23.28
2022-09-15T06:10:29.409Z,23.31
2022-09-15T06:12:29.564Z,23.31
2022-09-15T06:14:29.552Z,23.31
2022-09-15T06:16:29.557Z,23.33
2022-09-15T06:18:29.564Z,23.42
2022-09-15T06:20:29.553Z,23.34
2022-09-15T06:22:29.589Z,23.38
2022-09-15T06:24:29.488Z,23.31
2022-09-15T06:26:29.487Z,23.39
2022-09-15T06:28:29.580Z,23.45
2022-09-15T06:30:29.594Z,23.49
2022-09-15T06:32:29.579Z,23.49
2022-09-15T06:34:29.607Z,23.52
2022-09-15T06:36:29.594Z,23.53
2022-09-15T06:38:29.591Z,23.58
2022-09-15T06:40:29.671Z,23.57
2022-09-15T06:42:29.609Z,23.62
2022-09-15T06:44:29.621Z,23.66
2022-09-15T06:46:29.655Z,23.70
2022-09-15T06:48:29.679Z,23.78
2022-09-15T06:50:29.604Z,23.90
2022-09-15T06:52:29.637Z,23.96
2022-09-15T06:54:29.580Z,24.02
2022-09-15T06:56:30.953Z,24.10
2022-09-15T06:58:29.569Z,24.08
2022-09-15T07:00:29.604Z,24.09
2022-09-15T07:02:29.644Z,24.15
2022-09-15T07:04:29.634Z,24.20
2022-09-15T07:06:29.645Z,24.19
2022-09-15T07:08:29.624Z,24.25
2022-09-15T07:10:29.482Z,24.26
2022-09-15T07:12:29.675Z,24.22
2022-09-15T07:14:29.698Z,24.21
2022-09-15T07:16:29.883Z,24.18
2022-09-15T07:18:29.676Z,24.19
2022-09-15T07:20:29.662Z,24.24
2022-09-15T07:22:29.663Z,24.20
2022-09-15T07:24:29.628Z,24.27
2022-09-15T07:26:29.611Z,24.27
2022-09-15T07:28:29.681Z,24.34
2022-09-15T07:30:29.696Z,24.38
2022-09-15T07:32:29.782Z,24.34
2022-09-15T07:34:29.658Z,24.31
2022-09-15T07:36:29.650Z,24.35
2022-09-15T07:38:29.628Z,24.35
2022-09-15T07:40:29.617Z,24.43
2022-09-15T07:42:33.401Z,24.38
2022-09-15T07:44:29.652Z,24.41
2022-09-15T07:46:29.577Z,24.49
2022-09-15T07:48:29.690Z,24.63
2022-09-15T07:50:29.761Z,24.54
2022-09-15T07:52:29.667Z,24.60
2022-09-15T07:54:29.536Z,24.41
2022-09-15T07:56:29.717Z,24.26
2022-09-15T07:58:29.535Z,24.30
2022-09-15T08:00:29.723Z,24.16
2022-09-15T08:02:29.650Z,24.20
2022-09-15T08:04:29.595Z,24.35
2022-09-15T08:06:29.626Z,24.46
2022-09-15T08:08:29.677Z,24.54
2022-09-15T08:10:29.681Z,24.54
2022-09-15T08:12:29.689Z,24.64
2022-09-15T08:14:29.548Z,24.64
2022-09-15T08:16:29.770Z,24.59
2022-09-15T08:18:29.755Z,24.38
2022-09-15T08:20:29.667Z,24.38
2022-09-15T08:22:29.644Z,24.34
2022-09-15T08:24:29.714Z,24.41
2022-09-15T08:26:29.808Z,24.41
2022-09-15T08:28:29.719Z,24.25
2022-09-15T08:30:29.725Z,24.34
2022-09-15T08:32:29.589Z,24.29
2022-09-15T08:34:29.699Z,24.39
2022-09-15T08:36:29.714Z,24.40
2022-09-15T08:38:29.627Z,24.38
2022-09-15T08:40:29.745Z,24.52
2022-09-15T08:42:29.743Z,24.52
2022-09-15T08:44:29.722Z,24.58
2022-09-15T08:46:29.823Z,24.53
2022-09-15T08:48:29.665Z,24.44
2022-09-15T08:50:29.801Z,24.50
2022-09-15T08:52:29.691Z,24.41
2022-09-15T08:54:29.763Z,24.32
2022-09-15T08:56:29.766Z,24.34
2022-09-15T08:58:29.772Z,24.38
2022-09-15T09:00:29.699Z,24.42
2022-09-15T09:02:29.797Z,24.46
2022-09-15T09:04:29.670Z,24.51
2022-09-15T09:06:29.759Z,24.43
2022-09-15T09:08:29.685Z,24.51
2022-09-15T09:10:29.741Z,24.41
2022-09-15T09:12:29.775Z,24.44
2022-09-15T09:14:29.726Z,24.51
2022-09-15T09:16:29.808Z,24.47
2022-09-15T09:18:29.754Z,24.54
2022-09-15T09:20:29.777Z,24.66
2022-09-15T09:22:29.763Z,24.66
2022-09-15T09:24:29.794Z,24.83
2022-09-15T09:26:29.759Z,24.80
2022-09-15T09:28:29.787Z,24.78
2022-09-15T09:30:29.704Z,24.75
2022-09-15T09:32:29.813Z,24.88
2022-09-15T09:34:29.815Z,24.86
2022-09-15T09:36:29.797Z,24.99
2022-09-15T09:38:29.852Z,25.17
2022-09-15T09:40:29.886Z,25.12
2022-09-15T09:42:29.769Z,25.09
2022-09-15T09:44:29.816Z,25.11
2022-09-15T09:46:29.898Z,25.06
2022-09-15T09:48:29.828Z,24.97
2022-09-15T09:50:29.734Z,25.01
2022-09-15T09:52:29.830Z,24.95
2022-09-15T09:54:29.701Z,24.95
2022-09-15T09:56:29.844Z,24.90
2022-09-15T09:58:29.822Z,24.89
2022-09-15T10:00:29.845Z,24.39
2022-09-15T10:02:29.828Z,24.18
2022-09-15T10:04:29.861Z,24.29
2022-09-15T10:06:29.855Z,24.51
2022-09-15T10:08:29.789Z,24.62
2022-09-15T10:10:29.854Z,24.59
2022-09-15T10:12:29.859Z,24.68
2022-09-15T10:14:29.813Z,24.76
2022-09-15T10:16:29.965Z,24.76
2022-09-15T10:18:29.786Z,24.80
2022-09-15T10:20:29.790Z,24.83
2022-09-15T10:22:29.866Z,24.83
2022-09-15T10:24:29.849Z,24.87
2022-09-15T10:26:29.916Z,24.82
2022-09-15T10:28:29.834Z,24.85
2022-09-15T10:30:29.750Z,24.66
2022-09-15T10:32:29.712Z,24.58
2022-09-15T10:34:29.817Z,24.52
2022-09-15T10:36:29.882Z,24.52
2022-09-15T10:38:29.854Z,24.44
2022-09-15T10:40:29.958Z,24.49
2022-09-15T10:42:29.869Z,24.43
2022-09-15T10:44:29.872Z,24.44
2022-09-15T10:46:29.894Z,24.40
2022-09-15T10:48:29.953Z,24.43
2022-09-15T10:50:29.891Z,24.46
2022-09-15T10:52:29.865Z,24.48
2022-09-15T10:54:29.936Z,24.51
2022-09-15T10:56:29.862Z,24.62
2022-09-15T10:58:29.874Z,24.66
2022-09-15T11:00:29.881Z,24.71
2022-09-15T11:02:29.975Z,24.75
2022-09-15T11:04:29.883Z,24.75
2022-09-15T11:06:29.894Z,24.82
2022-09-15T11:08:29.795Z,24.95
2022-09-15T11:10:29.753Z,25.00
2022-09-15T11:12:29.942Z,24.94
2022-09-15T11:14:29.878Z,25.03
2022-09-15T11:16:29.848Z,25.18
2022-09-15T11:18:29.869Z,25.24
2022-09-15T11:20:30.049Z,25.37
2022-09-15T11:22:29.940Z,25.46
2022-09-15T11:24:29.934Z,25.47
2022-09-15T11:26:29.926Z,25.63
2022-09-15T11:28:29.949Z,25.53
2022-09-15T11:30:29.879Z,25.63
2022-09-15T11:32:29.939Z,25.60
2022-09-15T11:34:29.932Z,25.48
2022-09-15T11:36:29.924Z,24.95
2022-09-15T11:38:29.983Z,24.80
2022-09-15T11:40:29.981Z,24.98
2022-09-15T11:42:29.942Z,25.14
2022-09-15T11:44:29.857Z,25.23
2022-09-15T11:46:29.853Z,25.35
2022-09-15T11:48:29.913Z,25.52
2022-09-15T11:50:29.968Z,25.72
2022-09-15T11:52:30.049Z,25.58
2022-09-15T11:54:31.524Z,25.52
2022-09-15T11:56:29.969Z,25.52
2022-09-15T11:58:30.022Z,25.35
2022-09-15T12:00:29.814Z,25.88
2022-09-15T12:02:29.998Z,25.89
2022-09-15T12:04:29.980Z,26.37
2022-09-15T12:06:29.970Z,27.48
2022-09-15T12:08:30.489Z,27.69
2022-09-15T12:10:29.992Z,27.62
2022-09-15T12:12:30.868Z,26.34
2022-09-15T12:14:29.899Z,27.64
2022-09-15T12:16:29.814Z,27.52
2022-09-15T12:18:39.834Z,27.56
2022-09-15T12:20:29.997Z,26.48
2022-09-15T12:22:30.017Z,27.59
2022-09-15T12:24:30.013Z,27.55
2022-09-15T12:26:29.971Z,26.83
2022-09-15T12:30:29.995Z,26.30
2022-09-15T12:32:29.927Z,26.09
2022-09-15T12:34:29.967Z,25.75
2022-09-15T12:36:30.025Z,25.44
2022-09-15T12:38:30.022Z,24.97
2022-09-15T12:40:29.916Z,24.79
2022-09-15T12:42:30.028Z,24.95
2022-09-15T12:44:30.011Z,25.01
2022-09-15T12:46:29.989Z,25.26
2022-09-15T12:48:29.968Z,25.37
2022-09-15T12:50:29.996Z,25.64
2022-09-15T12:52:30.060Z,26.30
2022-09-15T12:54:29.946Z,27.47
2022-09-15T12:56:30.015Z,25.75
2022-09-15T12:58:30.049Z,27.90
2022-09-15T13:00:30.029Z,25.78
2022-09-15T13:02:30.179Z,27.92
2022-09-15T13:04:30.067Z,27.79
2022-09-15T13:06:30.048Z,27.78
2022-09-15T13:08:29.996Z,27.37
2022-09-15T13:10:30.048Z,27.45
2022-09-15T13:12:29.918Z,27.70
2022-09-15T13:14:30.054Z,27.31
2022-09-15T13:16:30.084Z,25.76
2022-09-15T13:18:30.076Z,27.76
2022-09-15T13:20:30.048Z,25.93
2022-09-15T13:22:30.101Z,27.26
2022-09-15T13:24:30.057Z,27.48
2022-09-15T13:26:30.025Z,26.08
2022-09-15T13:28:30.078Z,27.81
2022-09-15T13:30:30.087Z,27.79
2022-09-15T13:32:30.075Z,27.77
2022-09-15T13:38:04.420Z,25.80
2022-09-15T13:38:32.071Z,25.77
2022-09-15T13:40:30.023Z,27.53
2022-09-15T13:42:30.103Z,27.78
2022-09-15T13:44:30.030Z,26.93
2022-09-15T13:46:30.075Z,26.64
2022-09-15T13:48:29.983Z,27.78
2022-09-15T13:50:30.134Z,25.80
2022-09-15T13:52:30.116Z,25.75
2022-09-15T13:54:30.130Z,27.66
2022-09-15T13:56:30.057Z,25.78
2022-09-15T13:58:58.871Z,26.93
2022-09-15T14:00:29.996Z,25.80
2022-09-15T14:02:30.248Z,25.84
2022-09-15T14:04:30.048Z,25.89
2022-09-15T14:06:30.099Z,25.82
2022-09-15T14:08:30.109Z,26.25
2022-09-15T14:10:30.035Z,25.96
2022-09-15T14:12:29.952Z,25.58
2022-09-15T14:14:30.101Z,25.37
2022-09-15T14:16:30.167Z,25.23
2022-09-15T14:18:29.954Z,25.11
2022-09-15T14:20:30.039Z,25.09
2022-09-15T14:22:30.133Z,25.22
2022-09-15T14:24:30.163Z,26.14
2022-09-15T14:26:30.092Z,26.37
2022-09-15T14:28:31.635Z,26.13
2022-09-15T14:30:30.075Z,26.17
2022-09-15T14:32:30.049Z,25.95
2022-09-15T14:34:30.161Z,26.19
2022-09-15T14:36:30.197Z,26.34
2022-09-15T14:38:30.191Z,26.14
2022-09-15T14:40:30.242Z,26.93
2022-09-15T14:42:30.234Z,27.19
2022-09-15T14:46:30.162Z,26.29
2022-09-15T14:48:30.251Z,26.19
2022-09-15T14:50:32.924Z,26.08
2022-09-15T14:52:30.102Z,26.17
2022-09-15T14:54:30.212Z,25.80
2022-09-15T14:56:30.184Z,25.99
2022-09-15T14:58:30.236Z,26.08
2022-09-15T15:00:30.181Z,26.07
2022-09-15T15:02:30.265Z,26.29
2022-09-15T15:04:30.187Z,26.04
2022-09-15T15:06:30.239Z,26.16
2022-09-15T15:08:30.655Z,26.14
2022-09-15T15:10:36.416Z,27.90
2022-09-15T15:12:30.193Z,25.92
2022-09-15T15:14:30.209Z,27.51
2022-09-15T15:16:30.233Z,26.35
2022-09-15T15:18:31.854Z,25.92
2022-09-15T15:20:30.055Z,26.09
2022-09-15T15:22:30.147Z,26.22
2022-09-15T15:24:30.190Z,26.22
2022-09-15T15:26:30.142Z,26.21
2022-09-15T15:28:30.228Z,26.43
2022-09-15T15:30:30.117Z,25.47
2022-09-15T15:32:30.225Z,25.89
2022-09-15T15:34:30.093Z,24.95
2022-09-15T15:36:30.224Z,26.09
2022-09-15T15:38:30.217Z,25.87
2022-09-15T15:40:30.273Z,26.06
2022-09-15T15:42:30.203Z,26.24
2022-09-15T15:44:30.219Z,26.13
2022-09-15T15:46:30.352Z,26.04
2022-09-15T15:48:33.994Z,26.06
2022-09-15T15:50:30.237Z,25.89
2022-09-15T15:52:30.178Z,25.56
2022-09-15T15:54:30.237Z,25.13
2022-09-15T15:56:32.688Z,25.10
2022-09-15T15:58:30.477Z,24.65
2022-09-15T16:00:30.328Z,24.66
2022-09-15T16:02:30.183Z,24.94
2022-09-15T16:04:30.104Z,24.90
2022-09-15T16:06:30.207Z,24.94
2022-09-15T16:08:30.243Z,24.90
2022-09-15T16:10:30.225Z,24.92
2022-09-15T16:12:33.190Z,24.92
2022-09-15T16:14:30.245Z,24.92
2022-09-15T16:16:30.392Z,24.96
2022-09-15T16:18:30.272Z,25.00
2022-09-15T16:20:30.232Z,24.94
2022-09-15T16:22:30.168Z,24.95
2022-09-15T16:24:30.275Z,24.98
2022-09-15T16:26:30.118Z,25.05
2022-09-15T16:28:30.284Z,24.90
2022-09-15T16:30:30.268Z,24.94
2022-09-15T16:32:30.220Z,24.94
2022-09-15T16:34:30.144Z,24.95
2022-09-15T16:36:30.175Z,24.94
2022-09-15T16:38:30.187Z,24.81
2022-09-15T16:40:30.372Z,24.78
2022-09-15T16:42:30.316Z,24.75
2022-09-15T16:44:30.279Z,24.73
2022-09-15T16:46:30.261Z,24.72
2022-09-15T16:48:30.327Z,24.71
2022-09-15T16:50:30.211Z,24.66
2022-09-15T16:52:30.201Z,24.71
2022-09-15T16:54:30.283Z,24.66
2022-09-15T16:56:30.229Z,24.67
2022-09-15T16:58:30.161Z,24.66
2022-09-15T17:00:30.257Z,24.66
2022-09-15T17:02:30.351Z,24.66
2022-09-15T17:04:30.168Z,24.59
2022-09-15T17:06:30.280Z,24.67
2022-09-15T17:08:30.295Z,24.65
2022-09-15T17:10:30.342Z,24.62
2022-09-15T17:12:30.302Z,24.65
2022-09-15T17:14:30.323Z,24.56
2022-09-15T17:16:30.406Z,24.66
2022-09-15T17:18:30.290Z,24.54
2022-09-15T17:20:30.264Z,24.54
2022-09-15T17:22:30.343Z,24.54
2022-09-15T17:24:30.317Z,24.53
2022-09-15T17:26:31.616Z,24.51
2022-09-15T17:28:30.340Z,24.55
2022-09-15T17:30:30.386Z,24.57
2022-09-15T17:32:34.712Z,24.50
2022-09-15T17:34:30.313Z,24.48
2022-09-15T17:36:30.350Z,24.50
2022-09-15T17:38:30.351Z,24.48
2022-09-15T17:40:30.586Z,24.51
2022-09-15T17:42:30.367Z,24.46
2022-09-15T17:44:33.216Z,24.44
2022-09-15T17:46:30.407Z,24.47
2022-09-15T17:48:30.192Z,24.53
2022-09-15T17:50:30.402Z,24.43
2022-09-15T17:52:30.390Z,24.52
2022-09-15T17:56:30.286Z,24.38
2022-09-15T17:58:30.261Z,24.47
2022-09-15T18:00:30.366Z,24.41
2022-09-15T18:02:30.448Z,24.44
2022-09-15T18:04:30.258Z,24.43
2022-09-15T18:06:30.279Z,24.41
2022-09-15T18:08:30.399Z,24.38
2022-09-15T18:10:30.667Z,24.38
2022-09-15T18:12:30.277Z,24.41
2022-09-15T18:14:30.392Z,24.39
2022-09-15T18:16:30.357Z,24.37
2022-09-15T18:18:30.377Z,24.43
2022-09-15T18:20:30.263Z,24.46
2022-09-15T18:22:30.244Z,24.43
2022-09-15T18:24:30.472Z,24.38
2022-09-15T18:26:30.422Z,24.41
2022-09-15T18:28:30.503Z,24.35
2022-09-15T18:30:30.401Z,24.38
2022-09-15T18:32:30.443Z,24.37
2022-09-15T18:34:30.488Z,24.27
2022-09-15T18:36:30.471Z,24.37
2022-09-15T18:38:30.419Z,24.36
2022-09-15T18:40:30.484Z,24.38
2022-09-15T18:42:31.948Z,24.34
2022-09-15T18:44:30.381Z,24.30
2022-09-15T18:46:30.774Z,24.33
2022-09-15T18:48:30.575Z,24.35
2022-09-15T18:50:31.785Z,24.25
2022-09-15T18:52:30.546Z,24.35
2022-09-15T18:54:30.449Z,24.30
2022-09-15T18:56:30.369Z,24.30
2022-09-15T18:58:30.586Z,24.26
2022-09-15T19:00:30.674Z,24.27
2022-09-15T19:02:30.632Z,24.33
2022-09-15T19:04:33.340Z,24.24
2022-09-15T19:06:30.419Z,24.25
2022-09-15T19:08:30.759Z,24.21
2022-09-15T19:10:30.860Z,24.23
2022-09-15T19:12:30.599Z,24.21
2022-09-15T19:14:30.769Z,24.28
2022-09-15T19:16:53.794Z,24.27
2022-09-15T19:18:30.849Z,24.27
2022-09-15T19:20:30.493Z,24.18
2022-09-15T19:22:30.526Z,24.13
2022-09-15T19:24:30.428Z,24.10
2022-09-15T19:26:30.540Z,24.12
2022-09-15T19:28:30.550Z,24.16
2022-09-15T19:30:30.750Z,24.16
2022-09-15T19:32:30.393Z,24.20
2022-09-15T19:34:30.605Z,24.15
2022-09-15T19:36:30.440Z,24.25
2022-09-15T19:38:30.474Z,24.23
2022-09-15T19:40:30.659Z,24.21
2022-09-15T19:42:30.806Z,24.23
2022-09-15T19:44:30.616Z,24.11
2022-09-15T19:46:30.524Z,24.11
2022-09-15T19:48:31.619Z,24.21
2022-09-15T19:50:30.486Z,24.20
2022-09-15T19:52:30.460Z,24.21
2022-09-15T19:54:30.471Z,24.24
2022-09-15T19:56:30.501Z,24.19
2022-09-15T19:58:30.509Z,24.20
2022-09-15T20:00:30.344Z,24.21
2022-09-15T20:02:30.428Z,24.14
2022-09-15T20:04:30.481Z,24.15
2022-09-15T20:06:32.523Z,24.01
2022-09-15T20:08:30.494Z,24.14
2022-09-15T20:10:30.481Z,24.16
2022-09-15T20:12:30.778Z,24.10
2022-09-15T20:14:30.500Z,24.11
2022-09-15T20:16:30.591Z,24.11
2022-09-15T20:18:30.372Z,24.18
2022-09-15T20:20:30.531Z,24.12
2022-09-15T20:22:30.396Z,24.10
2022-09-15T20:24:30.595Z,24.12
2022-09-15T20:26:30.438Z,24.14
2022-09-15T20:28:30.501Z,24.20
2022-09-15T20:30:30.640Z,24.12
2022-09-15T20:32:30.518Z,24.14
2022-09-15T20:34:30.614Z,24.14
2022-09-15T20:36:30.521Z,24.10
2022-09-15T20:38:30.577Z,24.10
2022-09-15T20:40:30.721Z,24.11
2022-09-15T20:42:30.554Z,24.10
2022-09-15T20:44:30.498Z,24.16
2022-09-15T20:46:30.586Z,24.10
2022-09-15T20:48:30.580Z,24.09
2022-09-15T20:50:30.591Z,24.11
2022-09-15T20:52:34.649Z,24.10
2022-09-15T20:54:30.569Z,24.08
2022-09-15T20:56:30.572Z,24.09
2022-09-15T20:58:30.524Z,24.08
2022-09-15T21:00:33.777Z,24.12
2022-09-15T21:02:30.586Z,24.07
2022-09-15T21:04:30.548Z,24.04
2022-09-15T21:06:30.600Z,24.09
2022-09-15T21:08:30.574Z,24.04
2022-09-15T21:10:30.534Z,24.11
2022-09-15T21:12:30.561Z,24.09
2022-09-15T21:14:30.572Z,24.07
2022-09-15T21:16:30.705Z,24.04
2022-09-15T21:18:30.536Z,24.10
2022-09-15T21:20:30.593Z,24.01
2022-09-15T21:22:30.604Z,24.04
2022-09-15T21:24:30.614Z,24.02
2022-09-15T21:26:30.597Z,24.03
2022-09-15T21:28:30.637Z,24.02
2022-09-15T21:30:30.515Z,24.07
2022-09-15T21:32:30.571Z,24.02
2022-09-15T21:34:30.594Z,24.04
2022-09-15T21:36:30.609Z,24.06
2022-09-15T21:38:30.628Z,23.98
2022-09-15T21:40:30.545Z,24.01
2022-09-15T21:42:30.607Z,23.98
2022-09-15T21:44:30.632Z,24.02
2022-09-15T21:46:30.541Z,24.01
2022-09-15T21:48:30.660Z,23.97
2022-09-15T21:50:30.627Z,24.01
2022-09-15T21:52:30.643Z,23.96
2022-09-15T21:54:30.639Z,23.98
2022-09-15T21:56:30.636Z,23.96
2022-09-15T21:58:30.602Z,23.96
2022-09-15T22:00:30.664Z,23.93
2022-09-15T22:02:30.749Z,23.95
2022-09-15T22:04:30.644Z,23.96
2022-09-15T22:06:30.532Z,23.96
2022-09-15T22:08:30.660Z,23.96
2022-09-15T22:10:30.665Z,23.94
2022-09-15T22:12:30.620Z,23.91
2022-09-15T22:14:30.652Z,23.96
2022-09-15T22:16:30.760Z,23.91
2022-09-15T22:18:30.694Z,24.04
2022-09-15T22:20:30.688Z,23.93
2022-09-15T22:22:30.734Z,23.91
2022-09-15T22:24:30.686Z,23.91
2022-09-15T22:26:30.669Z,23.94
2022-09-15T22:28:30.673Z,23.93
2022-09-15T22:30:30.556Z,23.88
2022-09-15T22:32:30.586Z,23.93
2022-09-15T22:34:30.683Z,23.91
2022-09-15T22:36:30.700Z,23.89
2022-09-15T22:38:30.707Z,23.91
2022-09-15T22:40:30.646Z,23.91
2022-09-15T22:42:30.660Z,23.86
2022-09-15T22:44:30.760Z,23.84
2022-09-15T22:46:30.692Z,23.86
2022-09-15T22:48:30.671Z,23.89
2022-09-15T22:50:30.660Z,23.83
2022-09-15T22:52:30.593Z,23.82
2022-09-15T22:54:30.705Z,23.87
2022-09-15T22:56:30.632Z,23.96
2022-09-15T22:58:30.641Z,23.88
2022-09-15T23:00:30.785Z,23.85
2022-09-15T23:02:30.727Z,23.81
2022-09-15T23:04:30.646Z,23.86
2022-09-15T23:06:30.727Z,23.82
2022-09-15T23:08:30.747Z,23.67
2022-09-15T23:10:30.736Z,23.91
2022-09-15T23:12:30.734Z,23.81
2022-09-15T23:14:30.727Z,23.83
2022-09-15T23:16:30.888Z,23.81
2022-09-15T23:18:30.615Z,23.81
2022-09-15T23:20:30.616Z,23.91
2022-09-15T23:22:30.557Z,23.81
2022-09-15T23:24:30.743Z,23.81
2022-09-15T23:26:30.716Z,23.79
2022-09-15T23:28:30.672Z,23.76
2022-09-15T23:30:30.751Z,23.86
2022-09-15T23:32:30.639Z,23.79
2022-09-15T23:34:30.582Z,23.81
2022-09-15T23:36:30.705Z,23.76
2022-09-15T23:38:30.760Z,23.81
2022-09-15T23:40:30.821Z,23.76
2022-09-15T23:42:30.695Z,23.81
2022-09-15T23:44:30.654Z,23.81
2022-09-15T23:46:30.822Z,23.81
2022-09-15T23:48:30.677Z,23.80
2022-09-15T23:50:30.765Z,23.80
2022-09-15T23:52:30.691Z,23.80
2022-09-15T23:54:30.693Z,23.76
2022-09-15T23:56:30.686Z,23.77
2022-09-15T23:58:30.726Z,23.79
